Latest Coastal Weather Observations for Cape Otway

IDV60701

Issued at 5:05 am EDT Friday 31 October 2014 (issued every 10 minutes, with the page automatically refreshed every 10 minutes)

About coastal observations | Map of coastal stations | Coastal observations for VIC | Marine services | Other Formats
Station Details ID: 090015 Name: CAPE OTWAY LIGHTHOUSE Lat: -38.86 Lon: 143.51 Height: 82.0 m
Data from the previous 72 hours. | See also: Recent months at Cape Otway
Date/Time
EDT
Temp

°C
Wind Pressure Rain
since 9am
mm
Weather Cloud Vis
km
Sea
Height
m
Swell
Dir
 
Speed
knots
Gust
knots
hPa Trend Height
m
Period
s
Dir
31/05:00am 10.1 NNE 7 9 1009.6 - 0.0 - - - - - - -
31/04:30am 10.2 N 10 12 1009.9 - 0.0 - - - - - - -
31/04:00am 9.7 N 9 11 1010.5 - 0.0 - - - - - - -
31/03:30am 9.6 N 7 9 1010.8 - 0.0 - - - - - - -
31/03:00am 9.8 N 7 8 1011.3 - 0.0 - - - - - - -
31/02:30am 9.9 N 7 8 1011.6 - 0.0 - - - - - - -
31/02:00am 10.1 N 7 8 1011.7 - 0.0 - - - - - - -
31/01:30am 10.8 N 6 7 1012.1 - 0.0 - - - - - - -
31/01:00am 11.5 N 6 7 1012.7 - 0.0 - - - - - - -
31/12:30am 11.7 NNW 6 7 1013.4 - 0.0 - - - - - - -
31/12:00am 13.4 W 8 12 1013.6 - 0.0 - - - - - - -
 
Date/Time
EDT
Temp

°C
Wind Pressure Rain
since 9am
mm
Weather Cloud Vis
km
Sea
Height
m
Swell
Dir
 
Speed
knots
Gust
knots
hPa Trend Height
m
Period
s
Dir
30/11:30pm 13.3 W 9 13 1013.8 - 0.0 - - - - - - -
30/11:00pm 12.9 W 9 13 1013.8 - 0.0 - - - - - - -
30/10:30pm 13.2 W 8 11 1013.7 - 0.0 - - - - - - -
30/10:00pm 13.2 W 9 13 1014.0 - 0.0 - - - - - - -
30/09:30pm 13.0 W 10 14 1013.8 - 0.0 - - - - - - -
30/09:00pm 13.0 W 9 11 1013.5 - 0.0 - - - - - - -
30/08:30pm 13.0 W 9 11 1013.5 - 0.0 - - - - - - -
30/08:00pm 13.3 W 9 11 1013.4 - 0.0 - - - - - - -
30/07:30pm 13.7 W 10 14 1013.2 - 0.0 - - - - - - -
30/07:00pm 14.3 W 10 14 1013.2 - 0.0 - - - - - - -
30/06:30pm 14.2 W 11 16 1013.2 - 0.0 - - - - - - -
30/06:00pm 14.7 W 14 17 1013.3 - 0.0 - - - - - - -
30/05:30pm 14.7 W 13 18 1013.4 - 0.0 - - - - - - -
30/05:00pm 14.9 W 15 20 1013.5 - 0.0 - - - - - - -
30/04:30pm 15.0 W 14 19 1013.6 - 0.0 - - - - - - -
30/04:00pm 15.7 W 12 19 1013.6 - 0.0 - - - - - - -
30/03:30pm 15.7 W 14 19 1013.6 - 0.0 - - - - - - -
30/03:00pm 15.7 W 14 19 1014.0 R 0.0 Fine Mostly cloudy 20 2 2.0 9 SW
30/02:30pm 15.0 W 12 17 1014.3 - 0.0 - - - - - - -
30/02:00pm 13.9 W 18 25 1014.3 - 0.0 - - - - - - -
30/01:30pm 15.0 W 15 20 1014.0 - 0.0 - - - - - - -
30/01:00pm 14.7 W 12 19 1014.1 - 0.0 - - - - - - -
30/12:30pm 14.9 W 15 20 1014.5 - 0.0 - - - - - - -
30/12:00pm 14.6 W 14 18 1014.6 - 0.0 - - - - - - -
30/11:30am 14.5 W 14 21 1014.9 - 0.0 - - - - - - -
30/11:00am 14.8 W 15 20 1014.7 - 0.0 - - - - - - -
30/10:30am 14.5 W 13 20 1014.5 - 0.0 - - - - - - -
30/10:00am 14.1 W 13 17 1015.0 - 0.0 - - - - - - -
30/09:30am 13.8 W 16 22 1015.0 - 0.0 - - - - - - -
30/09:00am 13.9 W 15 20 1014.8 R 0.0 Fine Mostly cloudy 20 2 2.0 9 SW
30/08:30am 13.5 W 10 16 1014.7 - 0.0 - - - - - - -
30/08:00am 13.5 W 14 19 1014.5 - 0.0 - - - - - - -
30/07:30am 13.6 W 14 20 1014.0 - 0.0 - - - - - - -
30/07:00am 13.3 W 14 20 1013.9 - 0.0 - - - - - - -
30/06:30am 13.3 WSW 16 23 1014.1 - 0.0 - - - - - - -
30/06:00am 13.3 W 14 19 1013.5 - 0.0 - - - - - - -
30/05:30am 12.9 W 16 25 1013.6 - 0.0 - - - - - - -
30/05:00am 13.1 W 16 22 1013.2 - 0.0 - - - - - - -
30/04:30am 13.3 W 12 18 1013.3 - 0.0 - - - - - - -
30/04:00am 13.3 W 13 19 1013.8 - 0.0 - - - - - - -
30/03:30am 13.5 W 14 20 1013.7 - 0.0 - - - - - - -
30/03:00am 13.5 W 16 21 1013.8 - 0.0 - - - - - - -
30/02:30am 13.5 W 17 23 1013.9 - 0.0 - - - - - - -
30/02:00am 13.4 W 16 24 1014.0 - 0.0 - - - - - - -
30/01:30am 13.1 W 16 22 1014.3 - 0.0 - - - - - - -
30/01:00am 13.5 W 16 20 1014.6 - 0.0 - - - - - - -
30/12:30am 13.3 W 16 21 1014.9 - 0.0 - - - - - - -
30/12:00am 13.5 W 19 27 1015.2 - 0.0 - - - - - - -
 
Date/Time
EDT
Temp

°C
Wind Pressure Rain
since 9am
mm
Weather Cloud Vis
km
Sea
Height
m
Swell
Dir
 
Speed
knots
Gust
knots
hPa Trend Height
m
Period
s
Dir
29/11:30pm 13.7 W 19 25 1015.3 - 0.0 - - - - - - -
29/11:00pm 13.4 W 17 23 1015.4 - 0.0 - - - - - - -
29/10:30pm 13.4 W 15 23 1015.8 - 0.0 - - - - - - -
29/10:17pm 13.4 W 16 26 1015.7 - 0.0 - - - - - - -
29/10:15pm 13.4 W 16 26 1015.7 - 0.0 - - - - - - -
29/10:00pm 13.3 WNW 15 21 1015.7 - 0.0 - - - - - - -
29/09:30pm 13.3 W 18 24 1015.9 - 0.0 - - - - - - -
29/09:00pm 13.2 W 18 24 1015.7 - 0.0 - - - - - - -
29/08:30pm 14.0 W 16 23 1015.5 - 0.0 - - - - - - -
29/08:00pm 13.9 WNW 14 19 1015.5 - 0.0 - - - - - - -
29/07:30pm 13.9 WNW 14 20 1015.4 - 0.0 - - - - - - -
29/07:00pm 13.9 WNW 13 20 1015.3 - 0.0 - - - - - - -
29/06:30pm 14.1 W 16 23 1015.3 - 0.0 - - - - - - -
29/06:00pm 15.2 W 17 22 1015.4 - 0.0 - - - - - - -
29/05:30pm 15.2 W 17 21 1015.4 - 0.0 - - - - - - -
29/05:00pm 15.4 W 17 22 1015.3 - 0.0 - - - - - - -
29/04:30pm 15.5 W 17 23 1015.3 - 0.0 - - - - - - -
29/04:00pm 14.6 W 15 21 1015.7 - 0.0 - - - - - - -
29/03:30pm 14.7 W 19 24 1015.8 - 0.0 - - - - - - -
29/03:00pm 15.1 W 17 23 1016.0 F 0.0 Fine Mostly cloudy 20 2 4.0 9 SW
29/02:30pm 15.5 W 14 21 1016.1 - 0.0 - - - - - - -
29/02:00pm 15.8 W 14 21 1016.3 - 0.0 - - - - - - -
29/01:30pm 14.9 W 14 21 1016.4 - 0.0 - - - - - - -
29/01:00pm 14.3 WNW 13 18 1016.6 - 0.0 - - - - - - -
29/12:30pm 13.6 WNW 13 18 1016.8 - 0.0 - - - - - - -
29/12:00pm 12.4 W 16 21 1017.1 - 0.0 - - - - - - -
29/11:30am 13.7 WNW 13 19 1017.3 - 0.0 - - - - - - -
29/11:00am 13.7 NW 11 22 1017.3 - 0.0 - - - - - - -
29/10:30am 14.0 W 15 20 1017.2 - 0.0 - - - - - - -
29/10:00am 13.4 WNW 12 17 1017.3 - 0.0 - - - - - - -
29/09:30am 13.1 NW 12 24 1017.3 - 0.0 - - - - - - -
29/09:00am 13.1 W 14 20 1017.3 F 0.0 Distant precip. Mostly cloudy 20 2 4.0 8 SW
29/08:30am 12.9 W 16 23 1017.4 - 0.0 - - - - - - -
29/08:00am 12.7 W 14 22 1017.3 - 0.0 - - - - - - -
29/07:30am 12.8 W 15 20 1017.2 - 0.0 - - - - - - -
29/07:00am 12.5 W 13 20 1017.0 - 0.0 - - - - - - -
29/06:30am 12.5 W 15 19 1016.7 - 0.0 - - - - - - -
29/06:00am 12.5 W 15 19 1016.3 - 0.0 - - - - - - -
29/05:30am 12.5 W 15 20 1016.2 - 0.0 - - - - - - -
29/05:00am 12.1 W 17 22 1016.1 - 0.0 - - - - - - -
29/04:30am 12.3 W 17 22 1015.9 - 0.0 - - - - - - -
29/04:00am 12.5 W 14 19 1016.0 - 0.0 - - - - - - -
29/03:30am 12.5 W 13 18 1016.1 - 0.0 - - - - - - -
29/03:00am 12.5 W 14 19 1016.1 - 0.0 - - - - - - -
29/02:30am 12.5 W 14 19 1016.2 - 0.0 - - - - - - -
29/02:00am 12.2 WSW 14 21 1016.3 - 0.0 - - - - - - -
29/01:30am 11.7 W 16 24 1016.7 - 0.0 - - - - - - -
29/01:00am 12.4 W 14 20 1016.8 - 0.0 - - - - - - -
29/12:30am 12.4 W 15 21 1016.9 - 0.0 - - - - - - -
29/12:15am 12.6 W 15 25 1016.9 - 0.0 - - - - - - -
29/12:14am 12.5 W 15 25 1016.8 - 0.0 - - - - - - -
29/12:00am 12.5 WSW 15 25 1016.9 - 0.0 - - - - - - -
 
Date/Time
EDT
Temp

°C
Wind Pressure Rain
since 9am
mm
Weather Cloud Vis
km
Sea
Height
m
Swell
Dir
 
Speed
knots
Gust
knots
hPa Trend Height
m
Period
s
Dir
28/11:51pm 12.5 WSW 15 25 1016.9 - 0.0 - - - - - - -
28/11:49pm 12.5 WSW 15 25 1016.9 - 0.0 - - - - - - -
28/11:30pm 12.5 W 16 23 1016.8 - 0.0 - - - - - - -
28/11:00pm 12.7 W 15 21 1016.6 - 0.0 - - - - - - -
28/10:30pm 12.6 W 16 24 1016.6 - 0.0 - - - - - - -
28/10:00pm 12.7 W 16 24 1016.6 - 0.0 - - - - - - -
28/09:30pm 12.6 W 19 26 1016.5 - 0.0 - - - - - - -
28/09:00pm 12.6 W 21 27 1016.2 - 0.0 - - - - - - -
28/08:30pm 12.4 W 21 28 1015.8 - 0.0 - - - - - - -
28/08:00pm 12.4 W 18 24 1015.5 - 0.0 - - - - - - -
28/07:42pm 12.4 W 21 31 1015.1 - 0.0 - - - - - - -
28/07:41pm 12.4 W 21 31 1015.2 - 0.0 - - - - - - -
28/07:30pm 12.5 W 22 29 1014.9 - 0.0 - - - - - - -
28/07:00pm 12.6 W 21 32 1014.5 - 0.0 - - - - - - -
28/06:40pm 12.8 W 19 29 1014.2 - 0.0 - - - - - - -
28/06:38pm 12.8 W 19 29 1014.2 - 0.0 - - - - - - -
28/06:30pm 13.0 W 21 29 1014.1 - 0.0 - - - - - - -
28/06:15pm 13.0 W 20 31 1013.8 - 0.0 - - - - - - -
28/06:14pm 13.3 W 19 29 1013.9 - 0.0 - - - - - - -
28/06:00pm 13.1 W 23 32 1013.9 - 0.0 - - - - - - -
28/05:30pm 12.3 W 22 30 1013.6 - 0.0 - - - - - - -
28/05:07pm 13.4 W 21 31 1013.3 - 0.0 - - - - - - -
28/05:00pm 13.4 W 23 32 1013.2 - 0.0 - - - - - - -
28/04:54pm 13.5 W 21 31 1013.1 - 0.0 - - - - - - -
28/04:52pm 13.5 W 21 31 1013.1 - 0.0 - - - - - - -
28/04:30pm 13.6 W 25 33 1012.9 - 0.0 - - - - - - -
28/04:00pm 13.8 W 24 32 1012.7 - 0.0 - - - - - - -
28/03:32pm 13.4 W 25 35 1012.5 - 0.0 - - - - - - -
28/03:30pm 13.4 W 25 35 1012.5 - 0.0 - - - - - - -
28/03:00pm 13.6 W 23 34 1012.4 R 0.0 Distant precip. Mostly cloudy 20 3 3.0 8 SW
28/02:43pm 13.7 W 25 35 1012.2 - 0.0 - - - - - - -
28/02:41pm 13.7 W 25 35 1012.2 - 0.0 - - - - - - -
28/02:30pm 13.1 W 25 34 1012.3 - 0.0 - - - - - - -
28/02:00pm 13.2 WSW 29 41 1011.9 - 0.0 - - - - - - -
28/01:30pm 14.5 W 28 39 1011.2 - 0.0 - - - - - - -
28/01:00pm 13.8 W 29 41 1010.9 - 0.0 - - - - - - -
28/12:30pm 14.4 W 30 42 1010.5 - 0.0 - - - - - - -
28/12:00pm 13.9 W 28 38 1010.1 - 0.0 - - - - - - -
28/11:43am 13.6 W 26 36 1009.9 - 0.0 - - - - - - -
28/11:41am 13.6 W 26 36 1009.9 - 0.0 - - - - - - -
28/11:30am 12.7 W 26 33 1010.0 - 0.0 - - - - - - -
28/11:00am 13.9 W 26 38 1009.9 - 0.0 - - - - - - -
28/10:30am 13.7 W 26 38 1009.7 - 0.0 - - - - - - -
28/10:07am 13.3 W 28 38 1009.3 - 0.0 - - - - - - -
28/10:05am 13.3 W 28 38 1009.3 - 0.0 - - - - - - -
28/10:00am 13.8 W 28 35 1009.1 - 0.0 - - - - - - -
28/09:30am 13.5 W 27 37 1008.9 - 0.0 - - - - - - -
28/09:04am 12.5 W 29 39 1008.5 - 0.0 - - - - - - -
28/09:03am 12.4 W 29 39 1008.4 - 0.0 - - - - - - -
28/09:00am 12.4 W 29 37 1008.4 R 1.6 Distant precip. Mostly cloudy 20 3 3.0 8 SW
28/08:30am 13.7 W 30 44 1008.0 - 1.0 - - - - - - -
28/08:00am 13.7 W 30 41 1007.4 - 1.0 - - - - - - -
28/07:30am 13.7 W 30 41 1006.7 - 1.0 - - - - - - -
28/07:00am 13.1 W 28 39 1006.6 - 1.0 - - - - - - -
28/06:30am 12.5 W 28 44 1006.0 - 1.0 - - - - - - -
28/06:26am 12.5 WNW 27 44 1005.7 - 1.0 - - - - - - -
28/06:00am 11.8 WNW 24 34 1006.1 - 0.8 - - - - - - -
28/05:30am 11.6 WNW 24 37 1005.9 - 0.8 - - - - - - -

Other Formats:

Comma delimited format used in spreadsheet applications
http://www.bom.gov.au/fwo/IDV60701/IDV60701.94842.axf

JavaScript Object Notation format (JSON) in row-major order
http://www.bom.gov.au/fwo/IDV60701/IDV60701.94842.json